Terminal Aerodrome Forecast
Issued by NWS

Home | Current Version | Previous Version | Text Only | Print | Product List | Glossary On
Versions: 1 2 3 4 5 6 7 8 9 10 11 12 13 14 15 16 17 18 19 20 21 22 23 24
000
FTUS45 KGJT 300530
TAFTEX
TAF
KTEX 300530Z 3006/3106 14005KT P6SM SCT200
     FM301400 VRB03KT P6SM FEW100 SCT200
     FM301800 27006KT P6SM SCT100 BKN200
     FM302100 23007KT P6SM VCTS SCT050CB BKN110
     FM310200 14003KT P6SM VCTS SCT050CB BKN090=

USA.gov is the U.S. government's official web portal to all federal, state and local government web resources and services.